sensor_id;sensor_type;location;lat;lon;timestamp;pressure;altitude;pressure_sealevel;temperature;humidity
45403;BME280;47427;51.976;5.326;2023-02-14T00:00:28;103442.09;;;2.60;100.00
45403;BME280;47427;51.976;5.326;2023-02-14T00:03:51;103439.63;;;2.53;100.00
45403;BME280;47427;51.976;5.326;2023-02-14T00:07:14;103439.63;;;2.53;100.00
45403;BME280;47427;51.976;5.326;2023-02-14T00:10:36;103443.78;;;2.51;100.00
45403;BME280;47427;51.976;5.326;2023-02-14T00:13:59;103439.47;;;2.43;100.00
45403;BME280;47427;51.976;5.326;2023-02-14T00:17:51;103434.44;;;2.35;100.00
45403;BME280;47427;51.976;5.326;2023-02-14T00:21:14;103441.91;;;2.32;100.00
45403;BME280;47427;51.976;5.326;2023-02-14T00:24:55;103423.47;;;2.21;100.00
45403;BME280;47427;51.976;5.326;2023-02-14T00:28:27;103430.88;;;2.17;100.00
45403;BME280;47427;51.976;5.326;2023-02-14T00:31:53;103432.44;;;2.15;100.00
45403;BME280;47427;51.976;5.326;2023-02-14T00:35:18;103429.97;;;2.17;100.00
45403;BME280;47427;51.976;5.326;2023-02-14T00:38:39;103428.78;;;2.13;100.00
45403;BME280;47427;51.976;5.326;2023-02-14T00:42:02;103427.81;;;2.04;100.00
45403;BME280;47427;51.976;5.326;2023-02-14T00:45:24;103415.78;;;1.96;100.00
45403;BME280;47427;51.976;5.326;2023-02-14T00:48:49;103417.72;;;1.90;100.00
45403;BME280;47427;51.976;5.326;2023-02-14T00:52:25;103423.50;;;1.87;100.00
45403;BME280;47427;51.976;5.326;2023-02-14T00:55:49;103427.03;;;1.88;100.00
45403;BME280;47427;51.976;5.326;2023-02-14T00:59:12;103421.19;;;1.82;100.00
45403;BME280;47427;51.976;5.326;2023-02-14T01:02:40;103421.78;;;1.79;100.00
45403;BME280;47427;51.976;5.326;2023-02-14T01:06:03;103417.09;;;1.75;100.00
45403;BME280;47427;51.976;5.326;2023-02-14T01:09:25;103408.38;;;1.74;100.00
45403;BME280;47427;51.976;5.326;2023-02-14T01:12:46;103406.06;;;1.69;100.00
45403;BME280;47427;51.976;5.326;2023-02-14T01:16:11;103414.31;;;1.65;100.00
45403;BME280;47427;51.976;5.326;2023-02-14T01:19:45;103415.94;;;1.64;100.00
45403;BME280;47427;51.976;5.326;2023-02-14T01:23:10;103418.53;;;1.64;100.00
45403;BME280;47427;51.976;5.326;2023-02-14T01:26:46;103412.44;;;1.64;100.00
45403;BME280;47427;51.976;5.326;2023-02-14T01:30:09;103406.19;;;1.62;100.00
45403;BME280;47427;51.976;5.326;2023-02-14T01:33:35;103407.25;;;1.55;100.00
45403;BME280;47427;51.976;5.326;2023-02-14T01:36:59;103404.66;;;1.55;100.00
45403;BME280;47427;51.976;5.326;2023-02-14T01:40:23;103407.84;;;1.52;100.00
45403;BME280;47427;51.976;5.326;2023-02-14T01:47:46;103407.69;;;1.51;100.00
45403;BME280;47427;51.976;5.326;2023-02-14T01:51:12;103405.97;;;1.43;100.00
45403;BME280;47427;51.976;5.326;2023-02-14T01:54:48;103410.84;;;1.40;100.00
45403;BME280;47427;51.976;5.326;2023-02-14T01:58:25;103400.00;;;1.35;100.00
45403;BME280;47427;51.976;5.326;2023-02-14T02:01:49;103407.00;;;1.36;100.00
45403;BME280;47427;51.976;5.326;2023-02-14T02:05:15;103404.88;;;1.32;100.00
45403;BME280;47427;51.976;5.326;2023-02-14T02:08:44;103400.88;;;1.27;100.00
45403;BME280;47427;51.976;5.326;2023-02-14T02:12:09;103395.22;;;1.22;100.00
45403;BME280;47427;51.976;5.326;2023-02-14T02:15:58;103398.72;;;1.23;100.00
45403;BME280;47427;51.976;5.326;2023-02-14T02:35:46;103388.47;;;1.16;100.00
45403;BME280;47427;51.976;5.326;2023-02-14T02:47:41;103395.59;;;1.10;100.00
45403;BME280;47427;51.976;5.326;2023-02-14T02:51:16;103395.59;;;1.10;100.00
45403;BME280;47427;51.976;5.326;2023-02-14T02:55:22;103399.69;;;1.07;100.00
45403;BME280;47427;51.976;5.326;2023-02-14T02:59:16;103392.34;;;1.03;100.00
45403;BME280;47427;51.976;5.326;2023-02-14T03:02:50;103393.13;;;1.02;100.00
45403;BME280;47427;51.976;5.326;2023-02-14T03:06:33;103383.38;;;1.00;100.00
45403;BME280;47427;51.976;5.326;2023-02-14T03:09:59;103391.56;;;0.96;100.00
45403;BME280;47427;51.976;5.326;2023-02-14T03:29:00;103377.41;;;0.92;100.00
45403;BME280;47427;51.976;5.326;2023-02-14T03:40:00;103382.63;;;1.01;100.00
45403;BME280;47427;51.976;5.326;2023-02-14T03:43:36;103382.50;;;1.08;100.00
45403;BME280;47427;51.976;5.326;2023-02-14T03:47:25;103374.47;;;1.14;100.00
45403;BME280;47427;51.976;5.326;2023-02-14T03:50:49;103380.00;;;1.17;100.00
45403;BME280;47427;51.976;5.326;2023-02-14T03:54:15;103376.81;;;1.19;100.00
45403;BME280;47427;51.976;5.326;2023-02-14T04:02:14;103367.97;;;1.17;100.00
45403;BME280;47427;51.976;5.326;2023-02-14T04:05:41;103365.81;;;1.13;100.00
45403;BME280;47427;51.976;5.326;2023-02-14T04:09:12;103366.13;;;1.16;100.00
45403;BME280;47427;51.976;5.326;2023-02-14T04:12:47;103376.22;;;1.22;100.00
45403;BME280;47427;51.976;5.326;2023-02-14T04:16:22;103377.81;;;1.37;100.00
45403;BME280;47427;51.976;5.326;2023-02-14T04:19:49;103388.19;;;1.46;100.00
45403;BME280;47427;51.976;5.326;2023-02-14T04:23:13;103389.97;;;1.38;100.00
45403;BME280;47427;51.976;5.326;2023-02-14T04:26:52;103378.44;;;1.43;100.00
45403;BME280;47427;51.976;5.326;2023-02-14T04:30:40;103377.69;;;1.44;100.00
45403;BME280;47427;51.976;5.326;2023-02-14T04:34:01;103379.81;;;1.40;100.00
45403;BME280;47427;51.976;5.326;2023-02-14T04:37:46;103379.75;;;1.31;100.00
45403;BME280;47427;51.976;5.326;2023-02-14T04:41:10;103371.38;;;1.34;100.00
45403;BME280;47427;51.976;5.326;2023-02-14T04:44:34;103372.47;;;1.36;100.00
45403;BME280;47427;51.976;5.326;2023-02-14T04:47:55;103372.63;;;1.37;100.00
45403;BME280;47427;51.976;5.326;2023-02-14T04:51:18;103370.91;;;1.29;100.00
45403;BME280;47427;51.976;5.326;2023-02-14T04:55:04;103365.72;;;1.29;100.00
45403;BME280;47427;51.976;5.326;2023-02-14T04:58:30;103362.81;;;1.17;100.00
45403;BME280;47427;51.976;5.326;2023-02-14T05:01:57;103366.38;;;1.02;100.00
45403;BME280;47427;51.976;5.326;2023-02-14T05:05:27;103369.97;;;0.95;100.00
45403;BME280;47427;51.976;5.326;2023-02-14T05:09:00;103367.78;;;0.91;100.00
45403;BME280;47427;51.976;5.326;2023-02-14T05:12:25;103363.06;;;0.87;100.00
45403;BME280;47427;51.976;5.326;2023-02-14T05:16:07;103363.06;;;0.87;100.00
45403;BME280;47427;51.976;5.326;2023-02-14T05:19:38;103364.00;;;0.88;100.00
45403;BME280;47427;51.976;5.326;2023-02-14T05:23:03;103355.97;;;0.93;100.00
45403;BME280;47427;51.976;5.326;2023-02-14T05:26:31;103358.03;;;1.04;100.00
45403;BME280;47427;51.976;5.326;2023-02-14T05:30:05;103354.25;;;1.10;100.00
45403;BME280;47427;51.976;5.326;2023-02-14T05:33:35;103359.41;;;1.10;100.00
45403;BME280;47427;51.976;5.326;2023-02-14T05:37:03;103355.44;;;1.04;100.00
45403;BME280;47427;51.976;5.326;2023-02-14T05:40:41;103348.38;;;0.95;100.00
45403;BME280;47427;51.976;5.326;2023-02-14T05:44:07;103360.72;;;0.97;100.00
45403;BME280;47427;51.976;5.326;2023-02-14T05:47:29;103358.88;;;0.96;100.00
45403;BME280;47427;51.976;5.326;2023-02-14T05:50:50;103362.16;;;0.86;100.00
45403;BME280;47427;51.976;5.326;2023-02-14T05:54:22;103369.84;;;0.78;100.00
45403;BME280;47427;51.976;5.326;2023-02-14T05:57:51;103362.47;;;0.65;100.00
45403;BME280;47427;51.976;5.326;2023-02-14T06:01:22;103352.97;;;0.57;100.00
45403;BME280;47427;51.976;5.326;2023-02-14T06:04:58;103359.97;;;0.58;100.00
45403;BME280;47427;51.976;5.326;2023-02-14T06:08:57;103362.22;;;0.55;100.00
45403;BME280;47427;51.976;5.326;2023-02-14T06:12:28;103362.59;;;0.42;100.00
45403;BME280;47427;51.976;5.326;2023-02-14T06:15:53;103361.19;;;0.37;100.00
45403;BME280;47427;51.976;5.326;2023-02-14T06:19:23;103365.69;;;0.31;100.00
45403;BME280;47427;51.976;5.326;2023-02-14T06:22:45;103361.25;;;0.30;100.00
45403;BME280;47427;51.976;5.326;2023-02-14T06:26:09;103369.31;;;0.33;100.00
45403;BME280;47427;51.976;5.326;2023-02-14T06:29:33;103368.88;;;0.28;100.00
45403;BME280;47427;51.976;5.326;2023-02-14T06:33:07;103370.94;;;0.24;100.00
45403;BME280;47427;51.976;5.326;2023-02-14T06:36:36;103369.59;;;0.27;100.00
45403;BME280;47427;51.976;5.326;2023-02-14T06:40:00;103366.38;;;0.21;100.00
45403;BME280;47427;51.976;5.326;2023-02-14T06:43:28;103379.41;;;0.22;100.00
45403;BME280;47427;51.976;5.326;2023-02-14T06:46:51;103378.00;;;0.17;100.00
45403;BME280;47427;51.976;5.326;2023-02-14T06:50:27;103372.78;;;0.09;100.00
45403;BME280;47427;51.976;5.326;2023-02-14T06:53:57;103382.59;;;0.04;100.00
45403;BME280;47427;51.976;5.326;2023-02-14T06:57:21;103379.28;;;0.05;100.00
45403;BME280;47427;51.976;5.326;2023-02-14T07:00:46;103379.41;;;0.07;100.00
45403;BME280;47427;51.976;5.326;2023-02-14T07:04:11;103376.59;;;0.12;100.00
45403;BME280;47427;51.976;5.326;2023-02-14T07:07:49;103365.94;;;0.09;100.00
45403;BME280;47427;51.976;5.326;2023-02-14T07:11:10;103375.09;;;0.14;100.00
45403;BME280;47427;51.976;5.326;2023-02-14T07:14:34;103373.41;;;0.15;100.00
45403;BME280;47427;51.976;5.326;2023-02-14T07:18:01;103376.09;;;0.24;100.00
45403;BME280;47427;51.976;5.326;2023-02-14T07:21:24;103368.34;;;0.39;100.00
45403;BME280;47427;51.976;5.326;2023-02-14T07:24:48;103383.16;;;0.49;100.00
45403;BME280;47427;51.976;5.326;2023-02-14T07:28:15;103383.72;;;0.62;100.00
45403;BME280;47427;51.976;5.326;2023-02-14T07:31:39;103386.69;;;0.74;100.00
45403;BME280;47427;51.976;5.326;2023-02-14T07:35:06;103389.25;;;0.90;100.00
45403;BME280;47427;51.976;5.326;2023-02-14T07:38:33;103372.06;;;1.15;100.00
45403;BME280;47427;51.976;5.326;2023-02-14T07:41:57;103373.03;;;1.58;100.00
45403;BME280;47427;51.976;5.326;2023-02-14T07:45:21;103365.69;;;2.22;100.00
45403;BME280;47427;51.976;5.326;2023-02-14T07:48:50;103368.28;;;3.36;100.00
45403;BME280;47427;51.976;5.326;2023-02-14T07:52:31;103374.53;;;4.21;100.00
45403;BME280;47427;51.976;5.326;2023-02-14T07:56:12;103372.47;;;4.84;100.00
45403;BME280;47427;51.976;5.326;2023-02-14T07:59:49;103373.69;;;4.69;100.00
45403;BME280;47427;51.976;5.326;2023-02-14T08:03:30;103372.44;;;5.03;100.00
45403;BME280;47427;51.976;5.326;2023-02-14T08:06:54;103371.91;;;6.06;100.00
45403;BME280;47427;51.976;5.326;2023-02-14T08:10:18;103374.78;;;6.83;100.00
45403;BME280;47427;51.976;5.326;2023-02-14T08:13:52;103371.22;;;7.47;100.00
45403;BME280;47427;51.976;5.326;2023-02-14T08:17:25;103365.31;;;7.71;100.00
45403;BME280;47427;51.976;5.326;2023-02-14T08:20:54;103376.34;;;7.45;100.00
45403;BME280;47427;51.976;5.326;2023-02-14T08:24:28;103366.19;;;7.38;100.00
45403;BME280;47427;51.976;5.326;2023-02-14T08:28:02;103370.16;;;7.55;100.00
45403;BME280;47427;51.976;5.326;2023-02-14T08:31:29;103370.28;;;8.24;100.00
45403;BME280;47427;51.976;5.326;2023-02-14T08:34:53;103364.41;;;9.58;100.00
45403;BME280;47427;51.976;5.326;2023-02-14T08:38:15;103370.16;;;10.54;100.00
45403;BME280;47427;51.976;5.326;2023-02-14T08:41:44;103363.66;;;11.15;100.00
45403;BME280;47427;51.976;5.326;2023-02-14T08:45:11;103366.69;;;11.91;100.00
45403;BME280;47427;51.976;5.326;2023-02-14T08:48:35;103353.53;;;12.35;91.76
45403;BME280;47427;51.976;5.326;2023-02-14T08:52:22;103365.81;;;12.96;86.12
45403;BME280;47427;51.976;5.326;2023-02-14T08:55:44;103370.06;;;13.09;81.21
45403;BME280;47427;51.976;5.326;2023-02-14T08:59:08;103357.31;;;13.48;78.66
45403;BME280;47427;51.976;5.326;2023-02-14T09:02:32;103363.41;;;13.30;75.31
45403;BME280;47427;51.976;5.326;2023-02-14T09:06:07;103367.13;;;13.83;71.76
45403;BME280;47427;51.976;5.326;2023-02-14T09:09:31;103354.56;;;14.12;72.47
45403;BME280;47427;51.976;5.326;2023-02-14T09:12:53;103358.72;;;13.57;71.59
45403;BME280;47427;51.976;5.326;2023-02-14T09:16:19;103360.19;;;12.44;77.47
45403;BME280;47427;51.976;5.326;2023-02-14T09:19:44;103353.53;;;12.65;77.79
45403;BME280;47427;51.976;5.326;2023-02-14T09:23:14;103354.03;;;12.43;78.14
45403;BME280;47427;51.976;5.326;2023-02-14T09:26:39;103364.69;;;11.74;79.09
45403;BME280;47427;51.976;5.326;2023-02-14T09:30:20;103355.25;;;11.77;83.59
45403;BME280;47427;51.976;5.326;2023-02-14T09:33:55;103338.44;;;13.40;77.27
45403;BME280;47427;51.976;5.326;2023-02-14T09:37:24;103352.13;;;14.50;71.44
45403;BME280;47427;51.976;5.326;2023-02-14T09:45:39;103336.16;;;16.81;55.74
45403;BME280;47427;51.976;5.326;2023-02-14T09:49:01;103331.72;;;17.02;54.64
45403;BME280;47427;51.976;5.326;2023-02-14T09:52:29;103335.38;;;16.83;55.77
45403;BME280;47427;51.976;5.326;2023-02-14T09:56:28;103329.25;;;18.27;50.16
45403;BME280;47427;51.976;5.326;2023-02-14T10:00:22;103329.63;;;19.21;49.11
45403;BME280;47427;51.976;5.326;2023-02-14T10:12:36;103332.72;;;20.65;41.90
45403;BME280;47427;51.976;5.326;2023-02-14T10:16:21;103320.06;;;20.56;42.30
45403;BME280;47427;51.976;5.326;2023-02-14T10:19:56;103318.78;;;20.42;43.05
45403;BME280;47427;51.976;5.326;2023-02-14T10:23:41;103316.84;;;21.10;41.53
45403;BME280;47427;51.976;5.326;2023-02-14T10:27:38;103318.03;;;21.66;41.56
45403;BME280;47427;51.976;5.326;2023-02-14T10:31:25;103309.22;;;22.18;40.04
45403;BME280;47427;51.976;5.326;2023-02-14T10:39:00;103295.53;;;22.53;38.13
45403;BME280;47427;51.976;5.326;2023-02-14T10:47:12;103306.09;;;23.73;35.94
45403;BME280;47427;51.976;5.326;2023-02-14T10:54:53;103297.94;;;24.59;35.45
45403;BME280;47427;51.976;5.326;2023-02-14T10:58:40;103297.88;;;24.50;34.01
45403;BME280;47427;51.976;5.326;2023-02-14T11:02:02;103288.94;;;24.55;35.54
45403;BME280;47427;51.976;5.326;2023-02-14T11:05:33;103295.47;;;23.81;34.80
45403;BME280;47427;51.976;5.326;2023-02-14T11:09:20;103290.19;;;23.90;34.26
45403;BME280;47427;51.976;5.326;2023-02-14T11:12:42;103291.00;;;23.82;35.52
45403;BME280;47427;51.976;5.326;2023-02-14T11:16:18;103293.16;;;22.73;36.20
45403;BME280;47427;51.976;5.326;2023-02-14T11:19:40;103273.97;;;21.92;37.54
45403;BME280;47427;51.976;5.326;2023-02-14T11:23:22;103274.66;;;20.20;40.40
45403;BME280;47427;51.976;5.326;2023-02-14T11:30:49;103275.63;;;19.25;43.81
45403;BME280;47427;51.976;5.326;2023-02-14T11:35:03;103274.72;;;18.38;45.84
45403;BME280;47427;51.976;5.326;2023-02-14T11:39:36;103267.66;;;18.68;43.83
45403;BME280;47427;51.976;5.326;2023-02-14T11:46:47;103254.19;;;17.33;47.76
45403;BME280;47427;51.976;5.326;2023-02-14T11:50:22;103248.63;;;19.75;44.27
45403;BME280;47427;51.976;5.326;2023-02-14T11:53:53;103243.59;;;19.85;43.30
45403;BME280;47427;51.976;5.326;2023-02-14T11:57:32;103239.00;;;19.80;43.67
45403;BME280;47427;51.976;5.326;2023-02-14T12:01:35;103232.31;;;21.09;41.59
45403;BME280;47427;51.976;5.326;2023-02-14T12:05:26;103223.88;;;22.96;38.77
45403;BME280;47427;51.976;5.326;2023-02-14T12:08:48;103215.06;;;23.87;37.23
45403;BME280;47427;51.976;5.326;2023-02-14T12:12:28;103215.78;;;24.92;33.68
45403;BME280;47427;51.976;5.326;2023-02-14T12:15:57;103219.50;;;25.30;33.41
45403;BME280;47427;51.976;5.326;2023-02-14T12:27:48;103199.84;;;26.17;30.65
45403;BME280;47427;51.976;5.326;2023-02-14T12:31:14;103192.69;;;25.73;31.54
45403;BME280;47427;51.976;5.326;2023-02-14T12:34:42;103187.31;;;25.75;31.30
45403;BME280;47427;51.976;5.326;2023-02-14T12:38:10;103179.25;;;25.78;31.66
45403;BME280;47427;51.976;5.326;2023-02-14T12:42:15;103172.97;;;26.05;30.31
45403;BME280;47427;51.976;5.326;2023-02-14T12:46:21;103172.84;;;26.71;29.93
45403;BME280;47427;51.976;5.326;2023-02-14T12:50:10;103153.94;;;26.82;30.40
45403;BME280;47427;51.976;5.326;2023-02-14T12:57:55;103153.13;;;26.55;29.43
45403;BME280;47427;51.976;5.326;2023-02-14T13:14:08;103129.94;;;25.71;29.79
45403;BME280;47427;51.976;5.326;2023-02-14T13:21:35;103120.06;;;25.72;30.17
45403;BME280;47427;51.976;5.326;2023-02-14T13:25:26;103112.00;;;25.64;29.61
45403;BME280;47427;51.976;5.326;2023-02-14T13:29:18;103118.28;;;25.65;28.37
45403;BME280;47427;51.976;5.326;2023-02-14T13:33:34;103103.00;;;24.95;29.90
45403;BME280;47427;51.976;5.326;2023-02-14T13:37:05;103103.06;;;25.32;29.94
45403;BME280;47427;51.976;5.326;2023-02-14T13:40:51;103102.19;;;25.48;29.51
45403;BME280;47427;51.976;5.326;2023-02-14T13:48:24;103090.53;;;25.86;29.46
45403;BME280;47427;51.976;5.326;2023-02-14T13:51:58;103094.13;;;25.29;29.25
45403;BME280;47427;51.976;5.326;2023-02-14T13:55:43;103086.59;;;24.30;30.92
45403;BME280;47427;51.976;5.326;2023-02-14T13:59:32;103077.78;;;24.53;31.06
45403;BME280;47427;51.976;5.326;2023-02-14T14:02:58;103078.88;;;25.22;30.82
45403;BME280;47427;51.976;5.326;2023-02-14T14:06:22;103077.09;;;25.47;31.35
45403;BME280;47427;51.976;5.326;2023-02-14T14:17:22;103068.75;;;24.34;31.23
45403;BME280;47427;51.976;5.326;2023-02-14T14:20:54;103067.13;;;24.74;32.17
45403;BME280;47427;51.976;5.326;2023-02-14T14:24:36;103066.22;;;24.64;30.85
45403;BME280;47427;51.976;5.326;2023-02-14T14:28:30;103048.16;;;24.30;32.14
45403;BME280;47427;51.976;5.326;2023-02-14T14:31:54;103032.03;;;24.28;31.37
45403;BME280;47427;51.976;5.326;2023-02-14T14:35:37;103050.78;;;24.16;31.36
45403;BME280;47427;51.976;5.326;2023-02-14T14:39:08;103044.31;;;23.78;32.53
45403;BME280;47427;51.976;5.326;2023-02-14T14:42:40;103058.03;;;23.11;32.91
45403;BME280;47427;51.976;5.326;2023-02-14T14:46:11;103053.28;;;22.83;33.42
45403;BME280;47427;51.976;5.326;2023-02-14T14:49:39;103045.47;;;23.00;33.63
45403;BME280;47427;51.976;5.326;2023-02-14T14:53:05;103050.19;;;22.44;33.93
45403;BME280;47427;51.976;5.326;2023-02-14T14:56:37;103039.41;;;22.40;34.13
45403;BME280;47427;51.976;5.326;2023-02-14T15:00:25;103052.78;;;22.40;34.19
45403;BME280;47427;51.976;5.326;2023-02-14T15:03:49;103029.19;;;22.10;34.54
45403;BME280;47427;51.976;5.326;2023-02-14T15:07:33;103022.66;;;21.86;35.97
45403;BME280;47427;51.976;5.326;2023-02-14T15:11:23;103035.78;;;21.72;35.56
45403;BME280;47427;51.976;5.326;2023-02-14T15:15:16;103022.63;;;20.76;36.63
45403;BME280;47427;51.976;5.326;2023-02-14T15:18:41;103038.66;;;20.80;37.01
45403;BME280;47427;51.976;5.326;2023-02-14T15:22:06;103041.53;;;20.90;38.16
45403;BME280;47427;51.976;5.326;2023-02-14T15:25:34;103025.66;;;20.08;38.50
45403;BME280;47427;51.976;5.326;2023-02-14T15:29:03;103036.47;;;20.16;38.95
45403;BME280;47427;51.976;5.326;2023-02-14T15:32:46;103045.72;;;19.56;39.38
45403;BME280;47427;51.976;5.326;2023-02-14T15:36:20;103043.41;;;18.07;42.32
45403;BME280;47427;51.976;5.326;2023-02-14T15:39:52;103042.28;;;16.93;44.53
45403;BME280;47427;51.976;5.326;2023-02-14T15:43:55;103039.63;;;16.21;46.59
45403;BME280;47427;51.976;5.326;2023-02-14T15:47:21;103042.03;;;15.49;49.36
45403;BME280;47427;51.976;5.326;2023-02-14T15:50:56;103039.00;;;15.18;48.96
45403;BME280;47427;51.976;5.326;2023-02-14T15:54:27;103031.38;;;14.84;50.68
45403;BME280;47427;51.976;5.326;2023-02-14T15:58:12;103032.41;;;14.29;51.10
45403;BME280;47427;51.976;5.326;2023-02-14T16:01:36;103035.38;;;14.18;52.71
45403;BME280;47427;51.976;5.326;2023-02-14T16:05:14;103029.09;;;13.96;52.83
45403;BME280;47427;51.976;5.326;2023-02-14T16:08:59;103032.91;;;13.83;53.86
45403;BME280;47427;51.976;5.326;2023-02-14T16:12:39;103033.91;;;13.68;55.11
45403;BME280;47427;51.976;5.326;2023-02-14T16:16:15;103034.44;;;13.42;54.96
45403;BME280;47427;51.976;5.326;2023-02-14T16:19:50;103025.91;;;13.30;56.54
45403;BME280;47427;51.976;5.326;2023-02-14T16:23:27;103023.28;;;13.14;57.36
45403;BME280;47427;51.976;5.326;2023-02-14T16:26:58;103011.91;;;12.97;57.89
45403;BME280;47427;51.976;5.326;2023-02-14T16:30:34;103009.13;;;12.77;59.00
45403;BME280;47427;51.976;5.326;2023-02-14T16:34:04;103007.69;;;12.50;59.62
45403;BME280;47427;51.976;5.326;2023-02-14T16:37:33;103014.28;;;12.25;60.75
45403;BME280;47427;51.976;5.326;2023-02-14T16:40:57;103015.09;;;12.08;61.67
45403;BME280;47427;51.976;5.326;2023-02-14T16:44:38;103017.44;;;11.87;62.68
45403;BME280;47427;51.976;5.326;2023-02-14T16:48:11;103018.69;;;11.62;63.49
45403;BME280;47427;51.976;5.326;2023-02-14T16:51:45;103019.34;;;11.43;64.50
45403;BME280;47427;51.976;5.326;2023-02-14T16:55:39;103017.28;;;11.23;65.58
45403;BME280;47427;51.976;5.326;2023-02-14T16:59:03;103014.75;;;11.10;65.84
45403;BME280;47427;51.976;5.326;2023-02-14T17:02:26;103015.94;;;11.00;67.01
45403;BME280;47427;51.976;5.326;2023-02-14T17:05:49;103020.16;;;10.83;67.28
45403;BME280;47427;51.976;5.326;2023-02-14T17:09:39;103024.41;;;10.66;68.04
45403;BME280;47427;51.976;5.326;2023-02-14T17:13:04;103025.41;;;10.53;68.88
45403;BME280;47427;51.976;5.326;2023-02-14T17:16:33;103040.28;;;10.39;69.14
45403;BME280;47427;51.976;5.326;2023-02-14T17:19:57;103049.66;;;10.23;69.91
45403;BME280;47427;51.976;5.326;2023-02-14T17:23:32;103042.06;;;9.99;70.95
45403;BME280;47427;51.976;5.326;2023-02-14T17:27:02;103048.56;;;9.77;71.71
45403;BME280;47427;51.976;5.326;2023-02-14T17:30:27;103046.56;;;9.60;72.40
45403;BME280;47427;51.976;5.326;2023-02-14T17:33:50;103050.81;;;9.45;73.29
45403;BME280;47427;51.976;5.326;2023-02-14T17:37:15;103053.31;;;9.30;74.10
45403;BME280;47427;51.976;5.326;2023-02-14T17:40:39;103052.28;;;9.15;74.81
45403;BME280;47427;51.976;5.326;2023-02-14T17:44:10;103055.78;;;9.02;75.59
45403;BME280;47427;51.976;5.326;2023-02-14T17:47:44;103050.41;;;8.87;75.53
45403;BME280;47427;51.976;5.326;2023-02-14T17:51:08;103046.78;;;8.60;76.84
45403;BME280;47427;51.976;5.326;2023-02-14T17:54:40;103054.09;;;8.52;77.64
45403;BME280;47427;51.976;5.326;2023-02-14T17:58:27;103049.75;;;8.53;78.58
45403;BME280;47427;51.976;5.326;2023-02-14T18:01:59;103034.56;;;8.47;79.43
45403;BME280;47427;51.976;5.326;2023-02-14T18:05:21;103046.63;;;8.45;79.62
45403;BME280;47427;51.976;5.326;2023-02-14T18:08:48;103046.53;;;8.32;80.40
45403;BME280;47427;51.976;5.326;2023-02-14T18:12:36;103036.91;;;8.19;80.62
45403;BME280;47427;51.976;5.326;2023-02-14T18:16:21;103039.19;;;8.02;80.96
45403;BME280;47427;51.976;5.326;2023-02-14T18:20:04;103040.28;;;7.93;81.76
45403;BME280;47427;51.976;5.326;2023-02-14T18:23:34;103035.28;;;7.84;83.05
45403;BME280;47427;51.976;5.326;2023-02-14T18:27:18;103039.47;;;7.82;83.14
45403;BME280;47427;51.976;5.326;2023-02-14T18:31:11;103027.91;;;7.78;83.69
45403;BME280;47427;51.976;5.326;2023-02-14T18:34:44;103029.75;;;7.68;84.30
45403;BME280;47427;51.976;5.326;2023-02-14T18:38:10;103029.88;;;7.57;84.56
45403;BME280;47427;51.976;5.326;2023-02-14T18:41:44;103025.88;;;7.39;84.97
45403;BME280;47427;51.976;5.326;2023-02-14T18:45:38;103021.34;;;7.25;85.65
45403;BME280;47427;51.976;5.326;2023-02-14T18:49:07;103015.56;;;7.17;86.63
45403;BME280;47427;51.976;5.326;2023-02-14T18:52:46;103019.41;;;7.10;87.27
45403;BME280;47427;51.976;5.326;2023-02-14T18:56:23;103008.50;;;7.04;88.26
45403;BME280;47427;51.976;5.326;2023-02-14T19:00:10;103001.69;;;6.94;88.69
45403;BME280;47427;51.976;5.326;2023-02-14T19:03:34;103005.88;;;6.92;89.87
45403;BME280;47427;51.976;5.326;2023-02-14T19:06:59;102999.75;;;6.92;90.58
45403;BME280;47427;51.976;5.326;2023-02-14T19:10:29;102989.78;;;6.86;90.85
45403;BME280;47427;51.976;5.326;2023-02-14T19:14:11;102994.72;;;6.83;91.67
45403;BME280;47427;51.976;5.326;2023-02-14T19:17:37;102997.78;;;6.78;92.29
45403;BME280;47427;51.976;5.326;2023-02-14T19:21:13;102993.16;;;6.73;92.65
45403;BME280;47427;51.976;5.326;2023-02-14T19:24:50;102990.59;;;6.63;93.13
45403;BME280;47427;51.976;5.326;2023-02-14T19:28:24;102983.66;;;6.52;93.05
45403;BME280;47427;51.976;5.326;2023-02-14T19:31:53;102989.94;;;6.32;94.44
45403;BME280;47427;51.976;5.326;2023-02-14T19:35:23;102989.91;;;6.20;94.55
45403;BME280;47427;51.976;5.326;2023-02-14T19:38:49;102993.34;;;6.09;95.44
45403;BME280;47427;51.976;5.326;2023-02-14T19:42:23;102987.69;;;6.03;95.75
45403;BME280;47427;51.976;5.326;2023-02-14T19:46:07;102985.38;;;5.96;96.41
45403;BME280;47427;51.976;5.326;2023-02-14T19:49:29;102988.75;;;5.95;96.81
45403;BME280;47427;51.976;5.326;2023-02-14T19:52:51;102988.47;;;5.92;97.23
45403;BME280;47427;51.976;5.326;2023-02-14T19:56:31;102993.31;;;5.87;97.87
45403;BME280;47427;51.976;5.326;2023-02-14T20:00:25;102991.13;;;5.81;98.41
45403;BME280;47427;51.976;5.326;2023-02-14T20:03:57;102999.25;;;5.74;98.06
45403;BME280;47427;51.976;5.326;2023-02-14T20:07:21;102999.72;;;5.58;98.39
45403;BME280;47427;51.976;5.326;2023-02-14T20:11:02;102994.69;;;5.50;98.93
45403;BME280;47427;51.976;5.326;2023-02-14T20:14:34;102986.25;;;5.42;99.40
45403;BME280;47427;51.976;5.326;2023-02-14T20:18:18;102987.16;;;5.42;100.00
45403;BME280;47427;51.976;5.326;2023-02-14T20:21:50;102974.66;;;5.38;100.00
45403;BME280;47427;51.976;5.326;2023-02-14T20:25:37;102972.22;;;5.30;100.00
45403;BME280;47427;51.976;5.326;2023-02-14T20:29:09;102964.19;;;5.16;100.00
45403;BME280;47427;51.976;5.326;2023-02-14T20:32:30;102968.66;;;5.07;100.00
45403;BME280;47427;51.976;5.326;2023-02-14T20:35:55;102968.53;;;4.95;100.00
45403;BME280;47427;51.976;5.326;2023-02-14T20:39:20;102965.44;;;4.89;100.00
45403;BME280;47427;51.976;5.326;2023-02-14T20:42:48;102962.69;;;4.77;100.00
45403;BME280;47427;51.976;5.326;2023-02-14T20:46:14;102962.84;;;4.69;100.00